This is the latest recevied weather packets stored in our database for station/object TA2NC-13. If no packets are shown the sender has not sent any weather packets the latest 10 day(s).
| Time | Temp. | Humidity | Pressure | Rain* | Wind** | Luminosity | Snow |
|---|---|---|---|---|---|---|---|
| 1777511400 | 5.56° C | 68% | 1017 hPa | 0 mm | - | - | - |
| 1777508400 | 6.11° C | 67% | 1017 hPa | 0 mm | - | - | - |
| 1777502401 | 6.67° C | 65% | 1017 hPa | 0 mm | - | - | - |
| 1777491000 | 10° C | 56% | 1016 hPa | 0 mm | - | - | - |
| 1777482001 | 14.44° C | 36% | 1014 hPa | 0 mm | - | - | - |
| 1777480200 | 16.11° C | 33% | 1014 hPa | 0 mm | - | - | - |
| 1777468800 | 21.11° C | 25% | 1015 hPa | 0 mm | - | - | - |
| 1777465800 | 20° C | 27% | 1015 hPa | 0 mm | - | - | - |
| 1777465200 | 20.56° C | 25% | 1015 hPa | 0 mm | - | - | - |
| 1777464600 | 20° C | 27% | 1015 hPa | 0 mm | - | - | - |
| 1777462800 | 19.44° C | 29% | 1015 hPa | 0 mm | - | - | - |
| 1777462200 | 19.44° C | 25% | 1015 hPa | 0 mm | - | - | - |
| 1777461600 | 19.44° C | 27% | 1015 hPa | 0 mm | - | - | - |
| 1777461000 | 20° C | 27% | 1015 hPa | 0 mm | - | - | - |
| 1777460400 | 19.44° C | 31% | 1015 hPa | 0 mm | - | - | - |
| 1777459200 | 18.89° C | 31% | 1015 hPa | 0 mm | - | - | - |
| 1777458000 | 18.33° C | 34% | 1015 hPa | 0 mm | - | - | - |
| 1777457400 | 18.33° C | 32% | 1015 hPa | 0 mm | - | - | - |
| 1777455600 | 17.78° C | 35% | 1015 hPa | 0 mm | - | - | - |
| 1777455000 | 17.78° C | 36% | 1015 hPa | 0 mm | - | - | - |
| 1777454400 | 17.22° C | 32% | 1015 hPa | 0 mm | - | - | - |
| 1777453800 | 17.22° C | 38% | 1015 hPa | 0 mm | - | - | - |
| 1777453200 | 17.22° C | 39% | 1015 hPa | 0 mm | - | - | - |
| 1777452601 | 16.67° C | 38% | 1015 hPa | 0 mm | - | - | - |
| 1777452000 | 17.22° C | 39% | 1015 hPa | 0 mm | - | - | - |
* Rain latest hour (hover to see other rain measurements)
** Current wind speed in m/s (hover to see current wind gust speed)